sensor_id;sensor_type;location;lat;lon;timestamp;P1;durP1;ratioP1;P2;durP2;ratioP2
74679;SDS011;63211;48.548;2.704;2023-05-10T00:01:38;1.17;;;0.20;;
74679;SDS011;63211;48.548;2.704;2023-05-10T00:04:05;0.30;;;0.10;;
74679;SDS011;63211;48.548;2.704;2023-05-10T00:06:32;0.17;;;0.10;;
74679;SDS011;63211;48.548;2.704;2023-05-10T00:08:59;0.35;;;0.10;;
74679;SDS011;63211;48.548;2.704;2023-05-10T00:11:25;0.43;;;0.00;;
74679;SDS011;63211;48.548;2.704;2023-05-10T00:13:53;0.08;;;0.08;;
74679;SDS011;63211;48.548;2.704;2023-05-10T00:16:20;1.05;;;0.40;;
74679;SDS011;63211;48.548;2.704;2023-05-10T00:18:47;0.35;;;0.08;;
74679;SDS011;63211;48.548;2.704;2023-05-10T00:21:13;0.30;;;0.10;;
74679;SDS011;63211;48.548;2.704;2023-05-10T00:23:40;0.32;;;0.10;;
74679;SDS011;63211;48.548;2.704;2023-05-10T00:26:06;0.17;;;0.00;;
74679;SDS011;63211;48.548;2.704;2023-05-10T00:28:33;1.02;;;0.20;;
74679;SDS011;63211;48.548;2.704;2023-05-10T00:31:01;0.10;;;0.00;;
74679;SDS011;63211;48.548;2.704;2023-05-10T00:33:27;0.17;;;0.17;;
74679;SDS011;63211;48.548;2.704;2023-05-10T00:35:54;0.00;;;0.00;;
74679;SDS011;63211;48.548;2.704;2023-05-10T00:38:21;0.45;;;0.10;;
74679;SDS011;63211;48.548;2.704;2023-05-10T00:40:47;0.22;;;0.00;;
74679;SDS011;63211;48.548;2.704;2023-05-10T00:43:14;0.38;;;0.10;;
74679;SDS011;63211;48.548;2.704;2023-05-10T00:45:40;1.08;;;0.47;;
74679;SDS011;63211;48.548;2.704;2023-05-10T00:48:08;0.32;;;0.10;;
74679;SDS011;63211;48.548;2.704;2023-05-10T00:50:35;0.20;;;0.05;;
74679;SDS011;63211;48.548;2.704;2023-05-10T00:53:02;0.45;;;0.10;;
74679;SDS011;63211;48.548;2.704;2023-05-10T00:55:29;0.85;;;0.00;;
74679;SDS011;63211;48.548;2.704;2023-05-10T00:57:56;0.20;;;0.10;;
74679;SDS011;63211;48.548;2.704;2023-05-10T01:00:23;0.10;;;0.00;;
74679;SDS011;63211;48.548;2.704;2023-05-10T01:02:50;0.30;;;0.00;;
74679;SDS011;63211;48.548;2.704;2023-05-10T01:05:19;0.10;;;0.00;;
74679;SDS011;63211;48.548;2.704;2023-05-10T01:07:46;0.50;;;0.10;;
74679;SDS011;63211;48.548;2.704;2023-05-10T01:10:13;0.22;;;0.00;;
74679;SDS011;63211;48.548;2.704;2023-05-10T01:12:40;1.67;;;0.10;;
74679;SDS011;63211;48.548;2.704;2023-05-10T01:15:11;0.20;;;0.00;;
74679;SDS011;63211;48.548;2.704;2023-05-10T01:17:39;0.10;;;0.00;;
74679;SDS011;63211;48.548;2.704;2023-05-10T01:20:08;0.00;;;0.00;;
74679;SDS011;63211;48.548;2.704;2023-05-10T01:22:42;0.10;;;0.00;;
74679;SDS011;63211;48.548;2.704;2023-05-10T01:25:29;0.10;;;0.00;;
74679;SDS011;63211;48.548;2.704;2023-05-10T01:28:23;0.28;;;0.10;;
74679;SDS011;63211;48.548;2.704;2023-05-10T01:31:18;0.00;;;0.00;;
74679;SDS011;63211;48.548;2.704;2023-05-10T01:33:56;0.20;;;0.00;;
74679;SDS011;63211;48.548;2.704;2023-05-10T01:36:30;0.40;;;0.05;;
74679;SDS011;63211;48.548;2.704;2023-05-10T01:39:00;0.28;;;0.10;;
74679;SDS011;63211;48.548;2.704;2023-05-10T01:41:45;0.30;;;0.10;;
74679;SDS011;63211;48.548;2.704;2023-05-10T01:44:20;0.90;;;0.10;;
74679;SDS011;63211;48.548;2.704;2023-05-10T01:46:57;0.20;;;0.00;;
74679;SDS011;63211;48.548;2.704;2023-05-10T01:49:32;0.30;;;0.03;;
74679;SDS011;63211;48.548;2.704;2023-05-10T01:52:04;0.55;;;0.20;;
74679;SDS011;63211;48.548;2.704;2023-05-10T01:54:34;0.10;;;0.00;;
74679;SDS011;63211;48.548;2.704;2023-05-10T01:57:05;0.98;;;0.20;;
74679;SDS011;63211;48.548;2.704;2023-05-10T01:59:35;0.20;;;0.10;;
74679;SDS011;63211;48.548;2.704;2023-05-10T02:02:05;1.00;;;0.20;;
74679;SDS011;63211;48.548;2.704;2023-05-10T02:04:38;0.20;;;0.10;;
74679;SDS011;63211;48.548;2.704;2023-05-10T02:07:06;0.63;;;0.32;;
74679;SDS011;63211;48.548;2.704;2023-05-10T02:09:33;0.65;;;0.25;;
74679;SDS011;63211;48.548;2.704;2023-05-10T02:12:01;0.20;;;0.00;;
74679;SDS011;63211;48.548;2.704;2023-05-10T02:14:30;1.23;;;0.10;;
74679;SDS011;63211;48.548;2.704;2023-05-10T02:17:00;0.10;;;0.00;;
74679;SDS011;63211;48.548;2.704;2023-05-10T02:19:30;0.13;;;0.00;;
74679;SDS011;63211;48.548;2.704;2023-05-10T02:21:59;0.25;;;0.00;;
74679;SDS011;63211;48.548;2.704;2023-05-10T02:24:28;0.22;;;0.10;;
74679;SDS011;63211;48.548;2.704;2023-05-10T02:26:55;0.38;;;0.03;;
74679;SDS011;63211;48.548;2.704;2023-05-10T02:29:23;1.20;;;0.30;;
74679;SDS011;63211;48.548;2.704;2023-05-10T02:31:51;0.10;;;0.03;;
74679;SDS011;63211;48.548;2.704;2023-05-10T02:34:20;0.73;;;0.00;;
74679;SDS011;63211;48.548;2.704;2023-05-10T02:36:48;0.10;;;0.00;;
74679;SDS011;63211;48.548;2.704;2023-05-10T02:39:18;0.40;;;0.00;;
74679;SDS011;63211;48.548;2.704;2023-05-10T02:41:47;0.08;;;0.00;;
74679;SDS011;63211;48.548;2.704;2023-05-10T02:44:15;0.03;;;0.00;;
74679;SDS011;63211;48.548;2.704;2023-05-10T02:46:45;0.30;;;0.10;;
74679;SDS011;63211;48.548;2.704;2023-05-10T02:49:11;0.45;;;0.00;;
74679;SDS011;63211;48.548;2.704;2023-05-10T02:51:40;0.20;;;0.00;;
74679;SDS011;63211;48.548;2.704;2023-05-10T02:54:10;0.13;;;0.10;;
74679;SDS011;63211;48.548;2.704;2023-05-10T02:56:42;0.10;;;0.00;;
74679;SDS011;63211;48.548;2.704;2023-05-10T02:59:13;0.38;;;0.10;;
74679;SDS011;63211;48.548;2.704;2023-05-10T03:01:40;0.47;;;0.10;;
74679;SDS011;63211;48.548;2.704;2023-05-10T03:04:07;0.55;;;0.00;;
74679;SDS011;63211;48.548;2.704;2023-05-10T03:06:33;0.10;;;0.00;;
74679;SDS011;63211;48.548;2.704;2023-05-10T03:09:00;0.10;;;0.00;;
74679;SDS011;63211;48.548;2.704;2023-05-10T03:11:32;0.30;;;0.00;;
74679;SDS011;63211;48.548;2.704;2023-05-10T03:14:13;1.05;;;0.10;;
74679;SDS011;63211;48.548;2.704;2023-05-10T03:16:52;0.10;;;0.00;;
74679;SDS011;63211;48.548;2.704;2023-05-10T03:19:24;0.10;;;0.00;;
74679;SDS011;63211;48.548;2.704;2023-05-10T03:21:57;0.45;;;0.00;;
74679;SDS011;63211;48.548;2.704;2023-05-10T03:24:26;0.10;;;0.00;;
74679;SDS011;63211;48.548;2.704;2023-05-10T03:26:54;0.05;;;0.00;;
74679;SDS011;63211;48.548;2.704;2023-05-10T03:29:25;0.10;;;0.00;;
74679;SDS011;63211;48.548;2.704;2023-05-10T03:31:53;0.10;;;0.00;;
74679;SDS011;63211;48.548;2.704;2023-05-10T03:34:22;0.30;;;0.10;;
74679;SDS011;63211;48.548;2.704;2023-05-10T03:36:49;0.75;;;0.00;;
74679;SDS011;63211;48.548;2.704;2023-05-10T03:39:16;0.00;;;0.00;;
74679;SDS011;63211;48.548;2.704;2023-05-10T03:41:42;0.30;;;0.00;;
74679;SDS011;63211;48.548;2.704;2023-05-10T03:44:09;1.02;;;0.05;;
74679;SDS011;63211;48.548;2.704;2023-05-10T03:46:37;0.10;;;0.00;;
74679;SDS011;63211;48.548;2.704;2023-05-10T03:49:04;0.35;;;0.03;;
74679;SDS011;63211;48.548;2.704;2023-05-10T03:51:30;1.35;;;0.00;;
74679;SDS011;63211;48.548;2.704;2023-05-10T03:53:57;0.32;;;0.03;;
74679;SDS011;63211;48.548;2.704;2023-05-10T03:56:23;0.00;;;0.00;;
74679;SDS011;63211;48.548;2.704;2023-05-10T03:58:50;0.57;;;0.00;;
74679;SDS011;63211;48.548;2.704;2023-05-10T04:01:17;0.17;;;0.10;;
74679;SDS011;63211;48.548;2.704;2023-05-10T04:03:45;0.10;;;0.00;;
74679;SDS011;63211;48.548;2.704;2023-05-10T04:06:11;0.30;;;0.00;;
74679;SDS011;63211;48.548;2.704;2023-05-10T04:08:38;0.57;;;0.00;;
74679;SDS011;63211;48.548;2.704;2023-05-10T04:11:05;0.80;;;0.00;;
74679;SDS011;63211;48.548;2.704;2023-05-10T04:13:32;0.32;;;0.10;;
74679;SDS011;63211;48.548;2.704;2023-05-10T04:15:59;0.10;;;0.10;;
74679;SDS011;63211;48.548;2.704;2023-05-10T04:18:26;0.00;;;0.00;;
74679;SDS011;63211;48.548;2.704;2023-05-10T04:20:54;0.10;;;0.00;;
74679;SDS011;63211;48.548;2.704;2023-05-10T04:23:20;0.10;;;0.00;;
74679;SDS011;63211;48.548;2.704;2023-05-10T04:25:47;0.17;;;0.10;;
74679;SDS011;63211;48.548;2.704;2023-05-10T04:28:13;0.85;;;0.10;;
74679;SDS011;63211;48.548;2.704;2023-05-10T04:30:40;0.75;;;0.00;;
74679;SDS011;63211;48.548;2.704;2023-05-10T04:33:07;0.00;;;0.00;;
74679;SDS011;63211;48.548;2.704;2023-05-10T04:35:34;0.10;;;0.00;;
74679;SDS011;63211;48.548;2.704;2023-05-10T04:38:02;0.10;;;0.00;;
74679;SDS011;63211;48.548;2.704;2023-05-10T04:40:28;0.60;;;0.05;;
74679;SDS011;63211;48.548;2.704;2023-05-10T04:42:55;0.00;;;0.00;;
74679;SDS011;63211;48.548;2.704;2023-05-10T04:45:22;0.45;;;0.00;;
74679;SDS011;63211;48.548;2.704;2023-05-10T04:47:48;0.20;;;0.00;;
74679;SDS011;63211;48.548;2.704;2023-05-10T04:50:15;0.40;;;0.10;;
74679;SDS011;63211;48.548;2.704;2023-05-10T04:52:42;0.10;;;0.00;;
74679;SDS011;63211;48.548;2.704;2023-05-10T04:55:10;0.88;;;0.10;;
74679;SDS011;63211;48.548;2.704;2023-05-10T04:57:36;0.73;;;0.17;;
74679;SDS011;63211;48.548;2.704;2023-05-10T05:00:03;0.05;;;0.00;;
74679;SDS011;63211;48.548;2.704;2023-05-10T05:02:31;0.70;;;0.17;;
74679;SDS011;63211;48.548;2.704;2023-05-10T05:04:57;0.30;;;0.10;;
74679;SDS011;63211;48.548;2.704;2023-05-10T05:07:24;0.10;;;0.00;;
74679;SDS011;63211;48.548;2.704;2023-05-10T05:09:50;1.35;;;0.10;;
74679;SDS011;63211;48.548;2.704;2023-05-10T05:12:18;0.32;;;0.03;;
74679;SDS011;63211;48.548;2.704;2023-05-10T05:14:45;0.88;;;0.10;;
74679;SDS011;63211;48.548;2.704;2023-05-10T05:17:11;0.00;;;0.00;;
74679;SDS011;63211;48.548;2.704;2023-05-10T05:19:38;0.85;;;0.03;;
74679;SDS011;63211;48.548;2.704;2023-05-10T05:22:06;0.10;;;0.00;;
74679;SDS011;63211;48.548;2.704;2023-05-10T05:24:34;0.28;;;0.00;;
74679;SDS011;63211;48.548;2.704;2023-05-10T05:27:03;3.55;;;0.13;;
74679;SDS011;63211;48.548;2.704;2023-05-10T05:29:31;4.78;;;0.98;;
74679;SDS011;63211;48.548;2.704;2023-05-10T05:31:57;31.90;;;5.95;;
74679;SDS011;63211;48.548;2.704;2023-05-10T05:34:24;23.30;;;5.07;;
74679;SDS011;63211;48.548;2.704;2023-05-10T05:36:51;91.15;;;17.15;;
74679;SDS011;63211;48.548;2.704;2023-05-10T05:39:17;52.97;;;12.77;;
74679;SDS011;63211;48.548;2.704;2023-05-10T05:41:44;41.80;;;9.27;;
74679;SDS011;63211;48.548;2.704;2023-05-10T05:44:11;36.97;;;7.40;;
74679;SDS011;63211;48.548;2.704;2023-05-10T05:46:39;37.63;;;7.88;;
74679;SDS011;63211;48.548;2.704;2023-05-10T05:49:05;31.52;;;7.57;;
74679;SDS011;63211;48.548;2.704;2023-05-10T05:51:32;24.58;;;6.03;;
74679;SDS011;63211;48.548;2.704;2023-05-10T05:53:59;24.05;;;5.78;;
74679;SDS011;63211;48.548;2.704;2023-05-10T05:56:26;25.92;;;6.28;;
74679;SDS011;63211;48.548;2.704;2023-05-10T05:58:53;23.15;;;5.30;;
74679;SDS011;63211;48.548;2.704;2023-05-10T06:01:20;23.65;;;4.82;;
74679;SDS011;63211;48.548;2.704;2023-05-10T06:03:47;22.35;;;5.30;;
74679;SDS011;63211;48.548;2.704;2023-05-10T06:06:14;22.65;;;4.30;;
74679;SDS011;63211;48.548;2.704;2023-05-10T06:08:41;24.23;;;4.57;;
74679;SDS011;63211;48.548;2.704;2023-05-10T06:11:07;17.17;;;3.60;;
74679;SDS011;63211;48.548;2.704;2023-05-10T06:13:34;12.82;;;3.88;;
74679;SDS011;63211;48.548;2.704;2023-05-10T06:16:00;15.23;;;4.20;;
74679;SDS011;63211;48.548;2.704;2023-05-10T06:18:28;20.55;;;3.50;;
74679;SDS011;63211;48.548;2.704;2023-05-10T06:20:56;11.55;;;3.95;;
74679;SDS011;63211;48.548;2.704;2023-05-10T06:23:23;15.30;;;3.20;;
74679;SDS011;63211;48.548;2.704;2023-05-10T06:25:50;17.38;;;3.42;;
74679;SDS011;63211;48.548;2.704;2023-05-10T06:28:17;14.52;;;3.22;;
74679;SDS011;63211;48.548;2.704;2023-05-10T06:30:44;10.00;;;2.08;;
74679;SDS011;63211;48.548;2.704;2023-05-10T06:33:10;9.65;;;2.30;;
74679;SDS011;63211;48.548;2.704;2023-05-10T06:35:37;8.02;;;1.80;;
74679;SDS011;63211;48.548;2.704;2023-05-10T06:38:05;8.20;;;1.77;;
74679;SDS011;63211;48.548;2.704;2023-05-10T06:40:31;7.63;;;2.05;;
74679;SDS011;63211;48.548;2.704;2023-05-10T06:42:58;10.73;;;2.10;;
74679;SDS011;63211;48.548;2.704;2023-05-10T06:45:25;6.43;;;2.08;;
74679;SDS011;63211;48.548;2.704;2023-05-10T06:47:51;6.20;;;1.98;;
74679;SDS011;63211;48.548;2.704;2023-05-10T06:50:18;11.18;;;1.80;;
74679;SDS011;63211;48.548;2.704;2023-05-10T06:52:44;7.13;;;1.60;;
74679;SDS011;63211;48.548;2.704;2023-05-10T06:55:12;7.20;;;2.03;;
74679;SDS011;63211;48.548;2.704;2023-05-10T06:57:39;4.45;;;1.00;;
74679;SDS011;63211;48.548;2.704;2023-05-10T07:00:06;5.75;;;1.65;;
74679;SDS011;63211;48.548;2.704;2023-05-10T07:02:34;3.72;;;0.80;;
74679;SDS011;63211;48.548;2.704;2023-05-10T07:05:01;3.17;;;0.98;;
74679;SDS011;63211;48.548;2.704;2023-05-10T07:07:28;6.07;;;1.23;;
74679;SDS011;63211;48.548;2.704;2023-05-10T07:09:54;6.93;;;1.48;;
74679;SDS011;63211;48.548;2.704;2023-05-10T07:12:23;5.65;;;0.98;;
74679;SDS011;63211;48.548;2.704;2023-05-10T07:14:50;4.07;;;1.05;;
74679;SDS011;63211;48.548;2.704;2023-05-10T07:17:17;4.47;;;1.63;;
74679;SDS011;63211;48.548;2.704;2023-05-10T07:19:43;5.55;;;1.58;;
74679;SDS011;63211;48.548;2.704;2023-05-10T07:22:10;2.55;;;0.90;;
74679;SDS011;63211;48.548;2.704;2023-05-10T07:24:37;4.18;;;0.80;;
74679;SDS011;63211;48.548;2.704;2023-05-10T07:27:04;4.00;;;1.17;;
74679;SDS011;63211;48.548;2.704;2023-05-10T07:29:32;4.93;;;0.90;;
74679;SDS011;63211;48.548;2.704;2023-05-10T07:31:59;4.55;;;0.82;;
74679;SDS011;63211;48.548;2.704;2023-05-10T07:34:26;2.47;;;0.60;;
74679;SDS011;63211;48.548;2.704;2023-05-10T07:36:53;2.97;;;0.70;;
74679;SDS011;63211;48.548;2.704;2023-05-10T07:39:19;2.95;;;0.70;;
74679;SDS011;63211;48.548;2.704;2023-05-10T07:41:46;1.83;;;0.65;;
74679;SDS011;63211;48.548;2.704;2023-05-10T07:44:13;2.28;;;0.90;;
74679;SDS011;63211;48.548;2.704;2023-05-10T07:46:41;1.35;;;0.43;;
74679;SDS011;63211;48.548;2.704;2023-05-10T07:49:07;3.25;;;0.60;;
74679;SDS011;63211;48.548;2.704;2023-05-10T07:51:34;2.17;;;0.60;;
74679;SDS011;63211;48.548;2.704;2023-05-10T07:54:00;1.02;;;0.55;;
74679;SDS011;63211;48.548;2.704;2023-05-10T07:56:28;2.60;;;0.43;;
74679;SDS011;63211;48.548;2.704;2023-05-10T07:58:57;1.40;;;0.38;;
74679;SDS011;63211;48.548;2.704;2023-05-10T08:01:25;2.83;;;0.43;;
74679;SDS011;63211;48.548;2.704;2023-05-10T08:03:53;1.48;;;0.30;;
74679;SDS011;63211;48.548;2.704;2023-05-10T08:06:20;2.85;;;0.80;;
74679;SDS011;63211;48.548;2.704;2023-05-10T08:08:47;2.45;;;0.40;;
74679;SDS011;63211;48.548;2.704;2023-05-10T08:11:15;2.63;;;0.40;;
74679;SDS011;63211;48.548;2.704;2023-05-10T08:13:42;2.40;;;0.50;;
74679;SDS011;63211;48.548;2.704;2023-05-10T08:16:09;1.45;;;0.47;;
74679;SDS011;63211;48.548;2.704;2023-05-10T08:18:35;2.75;;;0.40;;
74679;SDS011;63211;48.548;2.704;2023-05-10T08:21:04;1.90;;;0.40;;
74679;SDS011;63211;48.548;2.704;2023-05-10T08:23:30;2.47;;;0.60;;
74679;SDS011;63211;48.548;2.704;2023-05-10T08:25:57;1.42;;;0.50;;
74679;SDS011;63211;48.548;2.704;2023-05-10T08:28:24;1.92;;;0.50;;
74679;SDS011;63211;48.548;2.704;2023-05-10T08:30:50;1.77;;;0.45;;
74679;SDS011;63211;48.548;2.704;2023-05-10T08:33:17;1.17;;;0.30;;
74679;SDS011;63211;48.548;2.704;2023-05-10T08:35:44;1.45;;;0.22;;
74679;SDS011;63211;48.548;2.704;2023-05-10T08:38:12;1.10;;;0.30;;
74679;SDS011;63211;48.548;2.704;2023-05-10T08:40:39;1.55;;;0.20;;
74679;SDS011;63211;48.548;2.704;2023-05-10T08:43:08;1.70;;;0.50;;
74679;SDS011;63211;48.548;2.704;2023-05-10T08:45:36;0.43;;;0.17;;
74679;SDS011;63211;48.548;2.704;2023-05-10T08:48:05;1.50;;;0.28;;
74679;SDS011;63211;48.548;2.704;2023-05-10T08:50:33;1.25;;;0.20;;
74679;SDS011;63211;48.548;2.704;2023-05-10T08:53:04;1.25;;;0.20;;
74679;SDS011;63211;48.548;2.704;2023-05-10T08:55:33;1.77;;;0.20;;
74679;SDS011;63211;48.548;2.704;2023-05-10T08:58:01;0.57;;;0.10;;
74679;SDS011;63211;48.548;2.704;2023-05-10T09:00:28;1.60;;;0.20;;
74679;SDS011;63211;48.548;2.704;2023-05-10T09:02:55;0.88;;;0.30;;
74679;SDS011;63211;48.548;2.704;2023-05-10T09:05:24;0.52;;;0.15;;
74679;SDS011;63211;48.548;2.704;2023-05-10T09:07:50;1.77;;;0.43;;
74679;SDS011;63211;48.548;2.704;2023-05-10T09:10:17;0.73;;;0.20;;
74679;SDS011;63211;48.548;2.704;2023-05-10T09:12:46;0.73;;;0.20;;
74679;SDS011;63211;48.548;2.704;2023-05-10T09:15:14;1.10;;;0.30;;
74679;SDS011;63211;48.548;2.704;2023-05-10T09:17:41;0.45;;;0.10;;
74679;SDS011;63211;48.548;2.704;2023-05-10T09:20:10;0.45;;;0.10;;
74679;SDS011;63211;48.548;2.704;2023-05-10T09:22:36;0.90;;;0.15;;
74679;SDS011;63211;48.548;2.704;2023-05-10T09:25:04;0.43;;;0.10;;
74679;SDS011;63211;48.548;2.704;2023-05-10T09:27:32;0.32;;;0.30;;
74679;SDS011;63211;48.548;2.704;2023-05-10T09:30:00;0.57;;;0.20;;
74679;SDS011;63211;48.548;2.704;2023-05-10T09:32:35;0.50;;;0.10;;
74679;SDS011;63211;48.548;2.704;2023-05-10T09:35:05;1.13;;;0.20;;
74679;SDS011;63211;48.548;2.704;2023-05-10T09:37:35;0.82;;;0.10;;
74679;SDS011;63211;48.548;2.704;2023-05-10T09:40:06;0.50;;;0.20;;
74679;SDS011;63211;48.548;2.704;2023-05-10T09:42:33;0.20;;;0.10;;
74679;SDS011;63211;48.548;2.704;2023-05-10T09:45:02;0.75;;;0.20;;
74679;SDS011;63211;48.548;2.704;2023-05-10T09:47:31;0.55;;;0.25;;
74679;SDS011;63211;48.548;2.704;2023-05-10T09:49:59;0.45;;;0.10;;
74679;SDS011;63211;48.548;2.704;2023-05-10T09:52:29;1.08;;;0.08;;
74679;SDS011;63211;48.548;2.704;2023-05-10T09:54:56;1.13;;;0.15;;
74679;SDS011;63211;48.548;2.704;2023-05-10T09:57:23;0.52;;;0.10;;
74679;SDS011;63211;48.548;2.704;2023-05-10T09:59:50;0.90;;;0.10;;
74679;SDS011;63211;48.548;2.704;2023-05-10T10:02:20;0.70;;;0.10;;
74679;SDS011;63211;48.548;2.704;2023-05-10T10:04:49;0.63;;;0.00;;
74679;SDS011;63211;48.548;2.704;2023-05-10T10:07:17;0.68;;;0.20;;
74679;SDS011;63211;48.548;2.704;2023-05-10T10:09:49;0.80;;;0.20;;
74679;SDS011;63211;48.548;2.704;2023-05-10T10:12:16;0.90;;;0.10;;
74679;SDS011;63211;48.548;2.704;2023-05-10T10:14:44;0.20;;;0.10;;
74679;SDS011;63211;48.548;2.704;2023-05-10T10:17:12;0.55;;;0.05;;
74679;SDS011;63211;48.548;2.704;2023-05-10T10:19:40;0.17;;;0.10;;
74679;SDS011;63211;48.548;2.704;2023-05-10T10:22:07;0.70;;;0.10;;
74679;SDS011;63211;48.548;2.704;2023-05-10T10:24:35;0.80;;;0.20;;
74679;SDS011;63211;48.548;2.704;2023-05-10T10:27:04;0.50;;;0.10;;
74679;SDS011;63211;48.548;2.704;2023-05-10T10:29:40;0.30;;;0.08;;
74679;SDS011;63211;48.548;2.704;2023-05-10T10:32:19;0.47;;;0.20;;
74679;SDS011;63211;48.548;2.704;2023-05-10T10:34:53;1.75;;;0.38;;
74679;SDS011;63211;48.548;2.704;2023-05-10T10:37:21;0.90;;;0.10;;
74679;SDS011;63211;48.548;2.704;2023-05-10T10:39:47;0.43;;;0.15;;
74679;SDS011;63211;48.548;2.704;2023-05-10T10:42:14;1.17;;;0.40;;
74679;SDS011;63211;48.548;2.704;2023-05-10T10:45:13;1.13;;;0.22;;
74679;SDS011;63211;48.548;2.704;2023-05-10T10:47:40;0.43;;;0.05;;
74679;SDS011;63211;48.548;2.704;2023-05-10T10:50:09;0.50;;;0.10;;
74679;SDS011;63211;48.548;2.704;2023-05-10T10:52:38;1.77;;;0.35;;
74679;SDS011;63211;48.548;2.704;2023-05-10T10:55:05;2.22;;;0.22;;
74679;SDS011;63211;48.548;2.704;2023-05-10T10:57:35;1.92;;;0.40;;
74679;SDS011;63211;48.548;2.704;2023-05-10T11:03:03;0.32;;;0.17;;
74679;SDS011;63211;48.548;2.704;2023-05-10T11:05:36;2.15;;;0.20;;
74679;SDS011;63211;48.548;2.704;2023-05-10T11:08:11;1.55;;;0.30;;
74679;SDS011;63211;48.548;2.704;2023-05-10T11:10:49;0.98;;;0.25;;
74679;SDS011;63211;48.548;2.704;2023-05-10T11:13:21;1.73;;;0.50;;
74679;SDS011;63211;48.548;2.704;2023-05-10T11:15:54;1.25;;;0.50;;
74679;SDS011;63211;48.548;2.704;2023-05-10T11:18:23;0.93;;;0.20;;
74679;SDS011;63211;48.548;2.704;2023-05-10T11:20:52;0.55;;;0.30;;
74679;SDS011;63211;48.548;2.704;2023-05-10T11:23:21;0.20;;;0.13;;
74679;SDS011;63211;48.548;2.704;2023-05-10T11:25:48;0.93;;;0.30;;
74679;SDS011;63211;48.548;2.704;2023-05-10T11:28:16;1.60;;;0.20;;
74679;SDS011;63211;48.548;2.704;2023-05-10T11:30:44;2.00;;;0.30;;
74679;SDS011;63211;48.548;2.704;2023-05-10T11:33:14;1.45;;;0.30;;
74679;SDS011;63211;48.548;2.704;2023-05-10T11:35:42;0.55;;;0.10;;
74679;SDS011;63211;48.548;2.704;2023-05-10T11:38:11;1.90;;;0.30;;
74679;SDS011;63211;48.548;2.704;2023-05-10T11:40:39;0.70;;;0.20;;
74679;SDS011;63211;48.548;2.704;2023-05-10T11:43:06;0.98;;;0.35;;
74679;SDS011;63211;48.548;2.704;2023-05-10T11:45:35;0.93;;;0.30;;
74679;SDS011;63211;48.548;2.704;2023-05-10T11:48:02;2.97;;;0.30;;
74679;SDS011;63211;48.548;2.704;2023-05-10T11:50:29;2.03;;;0.50;;
74679;SDS011;63211;48.548;2.704;2023-05-10T11:52:56;1.17;;;0.30;;
74679;SDS011;63211;48.548;2.704;2023-05-10T11:55:25;3.60;;;0.40;;
74679;SDS011;63211;48.548;2.704;2023-05-10T11:57:51;1.48;;;0.40;;
74679;SDS011;63211;48.548;2.704;2023-05-10T12:00:18;1.17;;;0.40;;
74679;SDS011;63211;48.548;2.704;2023-05-10T12:02:45;0.52;;;0.20;;
74679;SDS011;63211;48.548;2.704;2023-05-10T12:05:12;0.20;;;0.10;;
74679;SDS011;63211;48.548;2.704;2023-05-10T12:07:39;0.90;;;0.30;;
74679;SDS011;63211;48.548;2.704;2023-05-10T12:10:06;0.30;;;0.10;;
74679;SDS011;63211;48.548;2.704;2023-05-10T12:12:42;0.85;;;0.47;;
74679;SDS011;63211;48.548;2.704;2023-05-10T12:15:10;0.77;;;0.30;;
74679;SDS011;63211;48.548;2.704;2023-05-10T12:17:38;1.00;;;0.40;;
74679;SDS011;63211;48.548;2.704;2023-05-10T12:20:15;1.00;;;0.17;;
74679;SDS011;63211;48.548;2.704;2023-05-10T12:22:46;0.68;;;0.20;;
74679;SDS011;63211;48.548;2.704;2023-05-10T12:25:13;1.23;;;0.35;;
74679;SDS011;63211;48.548;2.704;2023-05-10T12:27:41;0.90;;;0.35;;
74679;SDS011;63211;48.548;2.704;2023-05-10T12:30:18;0.85;;;0.30;;
74679;SDS011;63211;48.548;2.704;2023-05-10T12:32:46;0.68;;;0.30;;
74679;SDS011;63211;48.548;2.704;2023-05-10T12:35:13;1.35;;;0.35;;
74679;SDS011;63211;48.548;2.704;2023-05-10T12:37:40;1.35;;;0.22;;
74679;SDS011;63211;48.548;2.704;2023-05-10T12:40:07;0.77;;;0.20;;
74679;SDS011;63211;48.548;2.704;2023-05-10T12:42:35;1.38;;;0.20;;
74679;SDS011;63211;48.548;2.704;2023-05-10T12:45:05;0.40;;;0.15;;
74679;SDS011;63211;48.548;2.704;2023-05-10T12:47:33;1.00;;;0.22;;
74679;SDS011;63211;48.548;2.704;2023-05-10T12:50:01;1.10;;;0.20;;
74679;SDS011;63211;48.548;2.704;2023-05-10T12:52:28;1.15;;;0.30;;
74679;SDS011;63211;48.548;2.704;2023-05-10T12:54:57;0.88;;;0.10;;
74679;SDS011;63211;48.548;2.704;2023-05-10T12:57:24;1.90;;;0.40;;
74679;SDS011;63211;48.548;2.704;2023-05-10T12:59:50;1.05;;;0.40;;
74679;SDS011;63211;48.548;2.704;2023-05-10T13:02:18;0.85;;;0.20;;
74679;SDS011;63211;48.548;2.704;2023-05-10T13:04:46;1.00;;;0.15;;
74679;SDS011;63211;48.548;2.704;2023-05-10T13:07:12;2.22;;;0.30;;
74679;SDS011;63211;48.548;2.704;2023-05-10T13:09:39;0.38;;;0.20;;
74679;SDS011;63211;48.548;2.704;2023-05-10T13:12:06;0.77;;;0.20;;
74679;SDS011;63211;48.548;2.704;2023-05-10T13:14:32;0.93;;;0.30;;
74679;SDS011;63211;48.548;2.704;2023-05-10T13:16:59;0.85;;;0.25;;
74679;SDS011;63211;48.548;2.704;2023-05-10T13:19:27;0.47;;;0.20;;
74679;SDS011;63211;48.548;2.704;2023-05-10T13:21:54;0.52;;;0.15;;
74679;SDS011;63211;48.548;2.704;2023-05-10T13:24:20;0.98;;;0.30;;
74679;SDS011;63211;48.548;2.704;2023-05-10T13:26:47;0.25;;;0.15;;
74679;SDS011;63211;48.548;2.704;2023-05-10T13:29:14;0.70;;;0.20;;
74679;SDS011;63211;48.548;2.704;2023-05-10T13:31:43;0.93;;;0.30;;
74679;SDS011;63211;48.548;2.704;2023-05-10T13:34:09;0.35;;;0.20;;
74679;SDS011;63211;48.548;2.704;2023-05-10T13:36:37;2.00;;;0.22;;
74679;SDS011;63211;48.548;2.704;2023-05-10T13:39:04;1.15;;;0.20;;
74679;SDS011;63211;48.548;2.704;2023-05-10T13:41:31;0.90;;;0.10;;
74679;SDS011;63211;48.548;2.704;2023-05-10T13:43:58;0.30;;;0.10;;
74679;SDS011;63211;48.548;2.704;2023-05-10T13:46:24;0.68;;;0.20;;
74679;SDS011;63211;48.548;2.704;2023-05-10T13:48:51;0.93;;;0.20;;
74679;SDS011;63211;48.548;2.704;2023-05-10T13:51:17;0.50;;;0.13;;
74679;SDS011;63211;48.548;2.704;2023-05-10T13:53:45;0.93;;;0.30;;
74679;SDS011;63211;48.548;2.704;2023-05-10T13:56:13;1.27;;;0.30;;
74679;SDS011;63211;48.548;2.704;2023-05-10T13:58:39;1.98;;;0.30;;
74679;SDS011;63211;48.548;2.704;2023-05-10T14:01:06;0.90;;;0.35;;
74679;SDS011;63211;48.548;2.704;2023-05-10T14:03:33;1.25;;;0.32;;
74679;SDS011;63211;48.548;2.704;2023-05-10T14:05:59;2.25;;;0.30;;
74679;SDS011;63211;48.548;2.704;2023-05-10T14:08:26;1.58;;;0.32;;
74679;SDS011;63211;48.548;2.704;2023-05-10T14:10:54;2.63;;;0.40;;
74679;SDS011;63211;48.548;2.704;2023-05-10T14:13:22;1.25;;;0.45;;
74679;SDS011;63211;48.548;2.704;2023-05-10T14:15:49;1.65;;;0.38;;
74679;SDS011;63211;48.548;2.704;2023-05-10T14:18:16;1.90;;;0.50;;
74679;SDS011;63211;48.548;2.704;2023-05-10T14:20:42;1.05;;;0.28;;
74679;SDS011;63211;48.548;2.704;2023-05-10T14:23:09;0.57;;;0.20;;
74679;SDS011;63211;48.548;2.704;2023-05-10T14:25:36;1.50;;;0.20;;
74679;SDS011;63211;48.548;2.704;2023-05-10T14:28:04;1.80;;;0.30;;
74679;SDS011;63211;48.548;2.704;2023-05-10T14:30:31;1.30;;;0.25;;
74679;SDS011;63211;48.548;2.704;2023-05-10T14:32:57;1.05;;;0.55;;
74679;SDS011;63211;48.548;2.704;2023-05-10T14:35:26;1.38;;;0.32;;
74679;SDS011;63211;48.548;2.704;2023-05-10T14:37:52;0.47;;;0.20;;
74679;SDS011;63211;48.548;2.704;2023-05-10T14:40:20;1.48;;;0.15;;
74679;SDS011;63211;48.548;2.704;2023-05-10T14:42:46;0.50;;;0.20;;
74679;SDS011;63211;48.548;2.704;2023-05-10T14:45:14;1.17;;;0.30;;
74679;SDS011;63211;48.548;2.704;2023-05-10T14:47:41;2.80;;;0.35;;
74679;SDS011;63211;48.548;2.704;2023-05-10T14:50:07;1.85;;;0.55;;
74679;SDS011;63211;48.548;2.704;2023-05-10T14:52:34;1.13;;;0.20;;
74679;SDS011;63211;48.548;2.704;2023-05-10T14:55:01;0.70;;;0.20;;